createdAt,value
2022-08-18T00:00:38.029Z,99443.94
2022-08-18T00:03:56.432Z,99449.41
2022-08-18T00:06:37.589Z,99458.78
2022-08-18T00:09:31.478Z,99455.16
2022-08-18T00:12:23.888Z,99457.63
2022-08-18T00:15:15.139Z,99457.31
2022-08-18T00:18:03.675Z,99458.13
2022-08-18T00:20:52.156Z,99460.47
2022-08-18T00:23:40.751Z,99449.59
2022-08-18T00:26:32.344Z,99446.66
2022-08-18T00:29:26.466Z,99446.00
2022-08-18T00:32:15.680Z,99438.25
2022-08-18T00:35:08.349Z,99439.75
2022-08-18T00:37:58.162Z,99447.63
2022-08-18T00:40:49.327Z,99448.31
2022-08-18T00:43:43.027Z,99447.31
2022-08-18T00:46:38.099Z,99433.66
2022-08-18T00:49:26.737Z,99436.28
2022-08-18T00:52:16.514Z,99437.25
2022-08-18T00:55:05.629Z,99430.69
2022-08-18T00:57:55.591Z,99428.53
2022-08-18T01:00:44.273Z,99433.47
2022-08-18T01:03:34.137Z,99419.97
2022-08-18T01:06:28.706Z,99434.09
2022-08-18T01:09:18.290Z,99437.53
2022-08-18T01:12:27.932Z,99439.16
2022-08-18T01:15:28.268Z,99439.63
2022-08-18T01:18:36.286Z,99445.06
2022-08-18T01:21:45.508Z,99440.25
2022-08-18T01:24:54.806Z,99447.81
2022-08-18T01:27:43.543Z,99417.22
2022-08-18T01:30:32.866Z,99447.56
2022-08-18T01:33:21.496Z,99450.38
2022-08-18T01:36:20.426Z,99452.28
2022-08-18T01:39:10.593Z,99445.69
2022-08-18T01:42:04.484Z,99448.31
2022-08-18T01:44:52.994Z,99441.25
2022-08-18T01:47:47.067Z,99433.50
2022-08-18T01:50:37.573Z,99437.44
2022-08-18T01:53:27.326Z,99424.75
2022-08-18T01:56:17.722Z,99429.16
2022-08-18T01:59:10.498Z,99425.88
2022-08-18T02:02:00.474Z,99432.13
2022-08-18T02:04:49.195Z,99429.81
2022-08-18T02:07:37.769Z,99434.22
2022-08-18T02:10:28.685Z,99427.78
2022-08-18T02:13:17.232Z,99429.75
2022-08-18T02:16:08.499Z,99419.53
2022-08-18T02:18:57.007Z,99421.84
2022-08-18T02:21:45.569Z,99421.53
2022-08-18T02:24:34.086Z,99425.44
2022-08-18T02:27:22.527Z,99420.16
2022-08-18T02:30:13.713Z,99425.56
2022-08-18T02:33:03.658Z,99427.50
2022-08-18T02:35:54.908Z,99418.66
2022-08-18T02:38:43.529Z,99426.56
2022-08-18T02:41:33.150Z,99413.41
2022-08-18T02:44:21.611Z,99409.25
2022-08-18T02:47:10.065Z,99420.16
2022-08-18T02:49:59.867Z,99422.78
2022-08-18T02:52:48.807Z,99422.47
2022-08-18T02:55:37.375Z,99424.28
2022-08-18T02:58:29.310Z,99419.84
2022-08-18T03:01:20.585Z,99424.41
2022-08-18T03:04:10.249Z,99416.03
2022-08-18T03:07:01.967Z,99410.09
2022-08-18T03:09:50.897Z,99411.22
2022-08-18T03:12:39.417Z,99412.06
2022-08-18T03:15:28.180Z,99407.94
2022-08-18T03:18:17.560Z,99420.09
2022-08-18T03:21:07.847Z,99399.75
2022-08-18T03:24:00.383Z,99411.16
2022-08-18T03:26:50.203Z,99408.31
2022-08-18T03:29:38.763Z,99404.50
2022-08-18T03:32:27.251Z,99407.72
2022-08-18T03:35:15.895Z,99415.59
2022-08-18T03:38:04.548Z,99405.75
2022-08-18T03:40:54.580Z,99409.75
2022-08-18T03:43:51.379Z,99409.06
2022-08-18T03:46:41.902Z,99404.09
2022-08-18T03:49:30.457Z,99398.16
2022-08-18T03:52:19.062Z,99399.84
2022-08-18T03:55:08.453Z,99402.91
2022-08-18T03:58:02.891Z,99397.94
2022-08-18T04:00:51.489Z,99407.09
2022-08-18T04:03:40.092Z,99393.47
2022-08-18T04:06:30.709Z,99398.03
2022-08-18T04:09:20.192Z,99397.44
2022-08-18T04:12:15.377Z,99389.56
2022-08-18T04:15:07.572Z,99390.53
2022-08-18T04:18:03.459Z,99400.53
2022-08-18T04:20:58.968Z,99404.94
2022-08-18T04:23:48.230Z,99408.84
2022-08-18T04:26:38.584Z,99393.38
2022-08-18T04:29:28.491Z,99398.09
2022-08-18T04:32:19.417Z,99404.81
2022-08-18T04:35:13.672Z,99415.00
2022-08-18T04:38:02.767Z,99396.78
2022-08-18T04:40:51.717Z,99397.59
2022-08-18T04:43:40.702Z,99408.94
2022-08-18T04:46:29.580Z,99409.69
2022-08-18T04:49:19.898Z,99421.16
2022-08-18T04:52:39.966Z,99418.47
2022-08-18T04:55:30.269Z,99441.13
2022-08-18T04:58:18.906Z,99437.81
2022-08-18T05:01:09.928Z,99440.06
2022-08-18T05:03:59.663Z,99434.03
2022-08-18T05:06:49.629Z,99433.94
2022-08-18T05:09:41.403Z,99446.38
2022-08-18T05:12:30.189Z,99445.69
2022-08-18T05:15:20.329Z,99448.31
2022-08-18T05:18:08.812Z,99443.06
2022-08-18T05:21:02.807Z,99440.72
2022-08-18T05:23:55.916Z,99442.97
2022-08-18T05:26:45.575Z,99446.84
2022-08-18T05:29:36.846Z,99457.34
2022-08-18T05:32:46.466Z,99462.91
2022-08-18T05:35:42.526Z,99457.56
2022-08-18T05:38:42.426Z,99458.91
2022-08-18T05:41:35.100Z,99458.53
2022-08-18T05:44:27.175Z,99432.91
2022-08-18T05:47:18.762Z,99460.19
2022-08-18T05:50:10.433Z,99454.94
2022-08-18T05:53:00.623Z,99460.72
2022-08-18T05:56:17.172Z,99450.75
2022-08-18T05:59:07.303Z,99447.84
2022-08-18T06:02:00.522Z,99438.03
2022-08-18T06:04:50.705Z,99432.78
2022-08-18T06:07:43.466Z,99433.28
2022-08-18T06:10:32.427Z,99435.41
2022-08-18T06:13:21.080Z,99438.53
2022-08-18T06:16:15.282Z,99437.03
2022-08-18T06:19:07.057Z,99438.84
2022-08-18T06:22:00.509Z,99444.91
2022-08-18T06:24:54.420Z,99435.41
2022-08-18T06:27:51.663Z,99443.78
2022-08-18T06:30:50.530Z,99438.78
2022-08-18T06:33:50.269Z,99444.31
2022-08-18T06:36:49.067Z,99445.81
2022-08-18T06:39:44.490Z,99445.97
2022-08-18T06:42:34.874Z,99440.81
2022-08-18T06:45:35.937Z,99455.63
2022-08-18T06:48:33.789Z,99455.34
2022-08-18T06:51:24.656Z,99456.47
2022-08-18T06:54:28.527Z,99447.34
2022-08-18T06:57:26.203Z,99456.72
2022-08-18T07:00:26.873Z,99461.97
2022-08-18T07:03:23.130Z,99466.31
2022-08-18T07:06:24.583Z,99469.09
2022-08-18T07:09:23.461Z,99480.97
2022-08-18T07:12:12.248Z,99488.84
2022-08-18T07:15:02.649Z,99484.97
2022-08-18T07:17:52.288Z,99487.75
2022-08-18T07:20:45.883Z,99489.09
2022-08-18T07:23:38.334Z,99489.25
2022-08-18T07:26:28.433Z,99480.03
2022-08-18T07:29:17.321Z,99482.78
2022-08-18T07:32:20.814Z,99485.56
2022-08-18T07:35:13.018Z,99482.50
2022-08-18T07:38:18.948Z,99486.88
2022-08-18T07:41:16.323Z,99499.00
2022-08-18T07:44:17.301Z,99491.81
2022-08-18T07:47:08.355Z,99502.03
2022-08-18T07:50:16.948Z,99502.13
2022-08-18T07:53:12.328Z,99497.78
2022-08-18T07:56:06.906Z,99506.59
2022-08-18T07:58:59.061Z,99488.28
2022-08-18T08:01:53.829Z,99492.28
2022-08-18T08:04:47.161Z,99488.22
2022-08-18T08:07:41.856Z,99486.81
2022-08-18T08:10:35.278Z,99479.59
2022-08-18T08:13:51.718Z,99488.66
2022-08-18T08:16:44.510Z,99486.19
2022-08-18T08:20:08.444Z,99495.94
2022-08-18T08:23:09.616Z,99488.22
2022-08-18T08:26:35.460Z,99491.28
2022-08-18T08:29:34.990Z,99475.88
2022-08-18T08:32:34.798Z,99480.31
2022-08-18T08:35:48.888Z,99481.22
2022-08-18T08:38:45.274Z,99491.47
2022-08-18T08:41:37.502Z,99469.16
2022-08-18T08:44:30.676Z,99484.72
2022-08-18T08:47:23.278Z,99482.09
2022-08-18T08:50:15.217Z,99495.59
2022-08-18T08:53:13.124Z,99496.16
2022-08-18T08:56:09.787Z,99501.69
2022-08-18T08:59:00.909Z,99509.72
2022-08-18T09:01:57.186Z,99525.31
2022-08-18T09:04:53.268Z,99528.78
2022-08-18T09:08:24.096Z,99546.78
2022-08-18T09:11:42.891Z,99550.38
2022-08-18T09:15:01.879Z,99544.84
2022-08-18T09:18:08.963Z,99537.38
2022-08-18T09:21:11.445Z,99551.50
2022-08-18T09:24:11.030Z,99547.34
2022-08-18T09:27:15.859Z,99548.72
2022-08-18T09:30:07.329Z,99557.16
2022-08-18T09:32:58.632Z,99567.50
2022-08-18T09:36:25.957Z,99585.97
2022-08-18T09:39:41.793Z,99570.53
2022-08-18T09:42:59.963Z,99580.00
2022-08-18T09:45:57.618Z,99562.38
2022-08-18T09:48:46.483Z,99548.22
2022-08-18T09:51:39.993Z,99535.75
2022-08-18T09:54:32.624Z,99533.25
2022-08-18T09:57:24.469Z,99540.41
2022-08-18T10:00:33.685Z,99536.63
2022-08-18T10:03:31.042Z,99548.84
2022-08-18T10:06:20.889Z,99537.84
2022-08-18T10:09:37.131Z,99539.41
2022-08-18T10:12:37.610Z,99537.81
2022-08-18T10:15:46.308Z,99535.31
2022-08-18T10:18:53.232Z,99552.31
2022-08-18T10:22:10.324Z,99523.13
2022-08-18T10:28:10.182Z,99521.84
2022-08-18T10:31:10.197Z,99527.47
2022-08-18T10:34:16.441Z,99517.84
2022-08-18T10:37:13.012Z,99519.38
2022-08-18T10:40:16.520Z,99525.84
2022-08-18T10:43:45.552Z,99526.84
2022-08-18T10:46:25.029Z,99532.19
2022-08-18T10:49:25.184Z,99510.09
2022-08-18T10:53:17.031Z,99518.88
2022-08-18T10:56:12.021Z,99501.81
2022-08-18T10:59:15.892Z,99495.88
2022-08-18T11:02:19.013Z,99484.84
2022-08-18T11:05:09.254Z,99456.13
2022-08-18T11:08:01.672Z,99447.94
2022-08-18T11:14:07.994Z,99448.06
2022-08-18T11:17:03.428Z,99443.00
2022-08-18T11:19:55.691Z,99440.91
2022-08-18T11:22:52.129Z,99432.88
2022-08-18T11:25:42.090Z,99413.53
2022-08-18T11:28:32.535Z,99414.53
2022-08-18T11:31:22.835Z,99403.16
2022-08-18T11:34:19.751Z,99399.72
2022-08-18T11:37:11.510Z,99413.56
2022-08-18T11:40:02.126Z,99406.00
2022-08-18T11:42:55.077Z,99415.56
2022-08-18T11:45:55.384Z,99418.84
2022-08-18T11:48:52.376Z,99416.19
2022-08-18T11:51:56.026Z,99442.09
2022-08-18T11:54:50.871Z,99426.41
2022-08-18T11:57:53.528Z,99429.34
2022-08-18T12:01:01.517Z,99397.69
2022-08-18T12:03:53.318Z,99409.53
2022-08-18T12:06:50.144Z,99411.94
2022-08-18T12:12:53.750Z,99409.97
2022-08-18T12:15:46.260Z,99404.06
2022-08-18T12:18:36.339Z,99406.13
2022-08-18T12:21:26.636Z,99394.50
2022-08-18T12:27:32.291Z,99398.03
2022-08-18T12:30:21.109Z,99400.00
2022-08-18T12:33:12.315Z,99400.34
2022-08-18T12:36:01.268Z,99395.34
2022-08-18T12:38:56.605Z,99393.28
2022-08-18T12:41:45.513Z,99394.44
2022-08-18T12:44:34.793Z,99404.25
2022-08-18T12:47:24.740Z,99383.84
2022-08-18T12:50:19.851Z,99379.22
2022-08-18T12:53:08.483Z,99378.88
2022-08-18T12:55:58.583Z,99373.78
2022-08-18T12:58:47.185Z,99372.97
2022-08-18T13:01:36.580Z,99375.59
2022-08-18T13:04:27.044Z,99366.84
2022-08-18T13:07:16.907Z,99361.69
2022-08-18T13:10:08.922Z,99361.94
2022-08-18T13:13:19.990Z,99346.75
2022-08-18T13:16:09.118Z,99351.41
2022-08-18T13:19:06.032Z,99352.69
2022-08-18T13:21:54.829Z,99358.44
2022-08-18T13:24:45.762Z,99357.25
2022-08-18T13:27:35.546Z,99350.63
2022-08-18T13:30:31.305Z,99341.56
2022-08-18T13:33:34.908Z,99347.28
2022-08-18T13:36:44.349Z,99337.66
2022-08-18T13:39:35.077Z,99325.31
2022-08-18T13:42:29.632Z,99331.75
2022-08-18T13:45:23.042Z,99327.78
2022-08-18T13:48:15.784Z,99318.84
2022-08-18T13:51:04.673Z,99319.53
2022-08-18T13:54:15.848Z,99311.63
2022-08-18T13:57:02.795Z,99306.31
2022-08-18T13:59:51.592Z,99303.25
2022-08-18T14:02:40.673Z,99296.69
2022-08-18T14:05:36.792Z,99311.22
2022-08-18T14:08:40.497Z,99299.81
2022-08-18T14:11:33.228Z,99295.28
2022-08-18T14:14:22.334Z,99302.13
2022-08-18T14:17:11.011Z,99294.31
2022-08-18T14:20:22.278Z,99290.88
2022-08-18T14:23:34.935Z,99292.28
2022-08-18T14:26:43.799Z,99288.50
2022-08-18T14:29:46.217Z,99292.84
2022-08-18T14:32:36.622Z,99279.97
2022-08-18T14:36:06.022Z,99281.47
2022-08-18T14:38:51.697Z,99278.63
2022-08-18T14:41:49.461Z,99277.44
2022-08-18T14:44:45.815Z,99276.91
2022-08-18T14:47:34.516Z,99276.44
2022-08-18T14:50:25.894Z,99281.97
2022-08-18T14:53:15.075Z,99288.94
2022-08-18T14:56:05.956Z,99288.22
2022-08-18T14:58:54.864Z,99280.44
2022-08-18T15:01:44.429Z,99279.88
2022-08-18T15:04:38.469Z,99284.88
2022-08-18T15:07:42.005Z,99280.59
2022-08-18T15:10:31.183Z,99300.19
2022-08-18T15:13:21.607Z,99297.16
2022-08-18T15:16:15.153Z,99299.09
2022-08-18T15:19:04.501Z,99292.13
2022-08-18T15:22:30.649Z,99298.41
2022-08-18T15:25:42.698Z,99306.28
2022-08-18T15:28:32.698Z,99295.72
2022-08-18T15:34:30.965Z,99294.13
2022-08-18T15:37:24.072Z,99293.63
2022-08-18T15:40:21.602Z,99289.97
2022-08-18T15:43:19.334Z,99293.09
2022-08-18T15:46:09.532Z,99304.78
2022-08-18T15:49:05.227Z,99303.53
2022-08-18T15:51:54.714Z,99293.81
2022-08-18T15:54:50.432Z,99297.00
2022-08-18T15:57:40.358Z,99303.84
2022-08-18T16:00:31.746Z,99304.22
2022-08-18T16:03:21.923Z,99301.03
2022-08-18T16:06:14.104Z,99293.72
2022-08-18T16:09:09.213Z,99298.78
2022-08-18T16:12:00.358Z,99295.66
2022-08-18T16:14:52.539Z,99295.06
2022-08-18T16:17:41.154Z,99308.75
2022-08-18T16:20:31.190Z,99307.88
2022-08-18T16:23:19.839Z,99312.31
2022-08-18T16:26:09.142Z,99304.84
2022-08-18T16:29:01.305Z,99296.75
2022-08-18T16:31:51.088Z,99299.91
2022-08-18T16:34:40.555Z,99315.94
2022-08-18T16:37:30.453Z,99312.47
2022-08-18T16:40:19.732Z,99304.88
2022-08-18T16:43:09.053Z,99306.06
2022-08-18T16:45:57.935Z,99286.78
2022-08-18T16:48:47.198Z,99294.72
2022-08-18T16:51:36.495Z,99293.91
2022-08-18T16:54:26.496Z,99298.41
2022-08-18T16:57:36.446Z,99291.69
2022-08-18T17:01:00.176Z,99282.78
2022-08-18T17:04:13.767Z,99286.34
2022-08-18T17:07:09.222Z,99285.47
2022-08-18T17:09:59.336Z,99282.72
2022-08-18T17:12:48.208Z,99278.72
2022-08-18T17:15:36.861Z,99279.94
2022-08-18T17:18:25.507Z,99268.22
2022-08-18T17:21:15.387Z,99276.81
2022-08-18T17:24:08.853Z,99274.16
2022-08-18T17:27:25.713Z,99268.41
2022-08-18T17:30:16.980Z,99261.09
2022-08-18T17:33:11.732Z,99268.31
2022-08-18T17:36:02.608Z,99259.81
2022-08-18T17:38:54.763Z,99277.38
2022-08-18T17:41:57.251Z,99272.06
2022-08-18T17:44:52.324Z,99272.16
2022-08-18T17:47:53.186Z,99278.19
2022-08-18T17:51:03.327Z,99281.31
2022-08-18T17:53:52.015Z,99289.41
2022-08-18T17:56:44.295Z,99281.31
2022-08-18T17:59:45.524Z,99297.81
2022-08-18T18:02:42.041Z,99289.50
2022-08-18T18:05:40.650Z,99296.69
2022-08-18T18:09:05.836Z,99285.38
2022-08-18T18:11:54.430Z,99297.25
2022-08-18T18:14:43.166Z,99282.09
2022-08-18T18:17:34.115Z,99286.41
2022-08-18T18:20:34.544Z,99295.16
2022-08-18T18:23:25.647Z,99283.78
2022-08-18T18:26:29.350Z,99286.94
2022-08-18T18:29:21.687Z,99291.13
2022-08-18T18:32:27.453Z,99295.97
2022-08-18T18:35:18.685Z,99300.88
2022-08-18T18:38:25.809Z,99308.16
2022-08-18T18:41:24.139Z,99305.06
2022-08-18T18:44:14.907Z,99310.34
2022-08-18T18:47:08.815Z,99308.69
2022-08-18T18:50:03.752Z,99309.50
2022-08-18T18:53:09.392Z,99312.69
2022-08-18T18:56:05.176Z,99313.69
2022-08-18T18:58:58.266Z,99312.56
2022-08-18T19:02:01.731Z,99316.03
2022-08-18T19:04:56.082Z,99316.88
2022-08-18T19:07:59.819Z,99315.41
2022-08-18T19:10:57.880Z,99326.81
2022-08-18T19:13:54.397Z,99332.91
2022-08-18T19:16:48.412Z,99331.81
2022-08-18T19:19:40.417Z,99336.59
2022-08-18T19:22:41.391Z,99332.03
2022-08-18T19:25:32.414Z,99324.19
2022-08-18T19:28:27.060Z,99335.72
2022-08-18T19:31:23.238Z,99342.00
2022-08-18T19:34:15.910Z,99335.97
2022-08-18T19:37:12.248Z,99342.75
2022-08-18T19:40:22.768Z,99349.56
2022-08-18T19:43:13.657Z,99333.28
2022-08-18T19:46:13.114Z,99328.50
2022-08-18T19:49:06.140Z,99323.13
2022-08-18T19:51:58.531Z,99336.69
2022-08-18T19:54:57.647Z,99337.13
2022-08-18T19:58:01.673Z,99327.94
2022-08-18T20:00:53.667Z,99341.78
2022-08-18T20:03:57.397Z,99343.28
2022-08-18T20:07:14.503Z,99329.28
2022-08-18T20:10:44.110Z,99332.28
2022-08-18T20:13:36.090Z,99325.41
2022-08-18T20:16:43.840Z,99325.06
2022-08-18T20:20:03.618Z,99334.78
2022-08-18T20:22:57.014Z,99328.88
2022-08-18T20:25:48.524Z,99342.19
2022-08-18T20:28:39.532Z,99341.72
2022-08-18T20:31:49.054Z,99344.66
2022-08-18T20:34:37.677Z,99344.03
2022-08-18T20:37:27.735Z,99355.19
2022-08-18T20:40:39.139Z,99359.13
2022-08-18T20:43:31.379Z,99356.16
2022-08-18T20:46:31.520Z,99362.06
2022-08-18T20:49:29.183Z,99352.97
2022-08-18T20:52:29.721Z,99359.09
2022-08-18T20:55:30.862Z,99361.88
2022-08-18T20:58:32.508Z,99359.38
2022-08-18T21:01:21.592Z,99361.06
2022-08-18T21:04:10.237Z,99363.03
2022-08-18T21:06:58.864Z,99361.88
2022-08-18T21:10:12.295Z,99360.53
2022-08-18T21:13:05.141Z,99352.31
2022-08-18T21:15:54.711Z,99355.59
2022-08-18T21:18:51.089Z,99362.84
2022-08-18T21:21:42.214Z,99340.75
2022-08-18T21:24:33.199Z,99346.53
2022-08-18T21:27:28.671Z,99349.81
2022-08-18T21:30:23.627Z,99348.34
2022-08-18T21:33:21.668Z,99343.22
2022-08-18T21:36:14.592Z,99335.63
2022-08-18T21:39:09.546Z,99350.97
2022-08-18T21:41:59.417Z,99351.47
2022-08-18T21:44:48.558Z,99348.81
2022-08-18T21:47:38.559Z,99363.47
2022-08-18T21:50:28.924Z,99364.28
2022-08-18T21:53:21.984Z,99364.47
2022-08-18T21:56:22.001Z,99363.28
2022-08-18T21:59:12.987Z,99370.19
2022-08-18T22:02:01.694Z,99384.97
2022-08-18T22:04:51.902Z,99392.00
2022-08-18T22:07:47.886Z,99395.13
2022-08-18T22:10:54.174Z,99383.88
2022-08-18T22:14:00.422Z,99408.03
2022-08-18T22:16:50.639Z,99412.72
2022-08-18T22:19:39.284Z,99410.72
2022-08-18T22:22:47.055Z,99419.22
2022-08-18T22:25:35.667Z,99418.88
2022-08-18T22:28:24.354Z,99418.47
2022-08-18T22:31:20.931Z,99414.50
2022-08-18T22:34:13.487Z,99424.00
2022-08-18T22:37:04.277Z,99412.66
2022-08-18T22:39:57.003Z,99415.44
2022-08-18T22:42:45.722Z,99406.59
2022-08-18T22:45:34.333Z,99412.97
2022-08-18T22:48:22.927Z,99408.19
2022-08-18T22:51:13.081Z,99417.72
2022-08-18T22:54:01.801Z,99409.47
2022-08-18T22:56:56.577Z,99399.53
2022-08-18T22:59:46.871Z,99400.94
2022-08-18T23:02:35.635Z,99406.88
2022-08-18T23:05:24.794Z,99400.56
2022-08-18T23:08:13.470Z,99407.63
2022-08-18T23:11:04.034Z,99410.72
2022-08-18T23:13:53.995Z,99405.25
2022-08-18T23:16:45.502Z,99402.63
2022-08-18T23:19:34.160Z,99401.13
2022-08-18T23:22:22.811Z,99409.81
2022-08-18T23:25:11.804Z,99399.63
2022-08-18T23:28:00.479Z,99423.94
2022-08-18T23:30:51.417Z,99421.25
2022-08-18T23:33:41.304Z,99435.50
2022-08-18T23:36:30.744Z,99443.84
2022-08-18T23:39:19.283Z,99435.56
2022-08-18T23:42:13.012Z,99443.44
2022-08-18T23:45:04.060Z,99437.28
2022-08-18T23:47:54.110Z,99452.06
2022-08-18T23:50:49.388Z,99450.56
2022-08-18T23:53:38.481Z,99442.97
2022-08-18T23:56:28.376Z,99449.75
2022-08-18T23:59:20.949Z,99446.69
